sensor_id;sensor_type;location;lat;lon;timestamp;P1;durP1;ratioP1;P2;durP2;ratioP2
33188;SDS011;52601;53.070;10.600;2023-06-10T00:01:03;6.40;;;2.85;;
33188;SDS011;52601;53.070;10.600;2023-06-10T00:03:50;8.40;;;2.55;;
33188;SDS011;52601;53.070;10.600;2023-06-10T00:06:37;9.75;;;2.80;;
33188;SDS011;52601;53.070;10.600;2023-06-10T00:09:23;4.82;;;2.45;;
33188;SDS011;52601;53.070;10.600;2023-06-10T00:12:08;6.10;;;2.28;;
33188;SDS011;52601;53.070;10.600;2023-06-10T00:14:54;4.60;;;2.45;;
33188;SDS011;52601;53.070;10.600;2023-06-10T00:17:40;5.93;;;2.53;;
33188;SDS011;52601;53.070;10.600;2023-06-10T00:20:26;5.93;;;2.67;;
33188;SDS011;52601;53.070;10.600;2023-06-10T00:23:12;9.70;;;3.73;;
33188;SDS011;52601;53.070;10.600;2023-06-10T00:25:58;5.85;;;2.90;;
33188;SDS011;52601;53.070;10.600;2023-06-10T00:28:44;8.10;;;2.80;;
33188;SDS011;52601;53.070;10.600;2023-06-10T00:31:30;6.70;;;3.20;;
33188;SDS011;52601;53.070;10.600;2023-06-10T00:34:16;4.57;;;2.60;;
33188;SDS011;52601;53.070;10.600;2023-06-10T00:37:01;2.63;;;1.52;;
33188;SDS011;52601;53.070;10.600;2023-06-10T00:39:47;2.83;;;2.22;;
33188;SDS011;52601;53.070;10.600;2023-06-10T00:42:33;3.30;;;2.50;;
33188;SDS011;52601;53.070;10.600;2023-06-10T00:45:18;8.15;;;3.00;;
33188;SDS011;52601;53.070;10.600;2023-06-10T00:48:04;7.25;;;2.67;;
33188;SDS011;52601;53.070;10.600;2023-06-10T00:50:50;7.70;;;2.70;;
33188;SDS011;52601;53.070;10.600;2023-06-10T00:53:39;8.77;;;2.90;;
33188;SDS011;52601;53.070;10.600;2023-06-10T00:56:26;4.45;;;2.92;;
33188;SDS011;52601;53.070;10.600;2023-06-10T00:59:11;5.57;;;2.92;;
33188;SDS011;52601;53.070;10.600;2023-06-10T01:01:59;4.55;;;2.85;;
33188;SDS011;52601;53.070;10.600;2023-06-10T01:04:45;5.45;;;3.00;;
33188;SDS011;52601;53.070;10.600;2023-06-10T01:07:35;8.40;;;2.80;;
33188;SDS011;52601;53.070;10.600;2023-06-10T01:10:36;6.07;;;3.30;;
33188;SDS011;52601;53.070;10.600;2023-06-10T01:13:26;5.38;;;3.08;;
33188;SDS011;52601;53.070;10.600;2023-06-10T01:16:14;7.68;;;3.00;;
33188;SDS011;52601;53.070;10.600;2023-06-10T01:18:59;3.15;;;2.22;;
33188;SDS011;52601;53.070;10.600;2023-06-10T01:21:45;8.20;;;3.13;;
33188;SDS011;52601;53.070;10.600;2023-06-10T01:24:34;7.18;;;2.75;;
33188;SDS011;52601;53.070;10.600;2023-06-10T01:27:20;6.65;;;2.75;;
33188;SDS011;52601;53.070;10.600;2023-06-10T01:30:08;4.93;;;2.22;;
33188;SDS011;52601;53.070;10.600;2023-06-10T01:33:00;4.05;;;2.65;;
33188;SDS011;52601;53.070;10.600;2023-06-10T01:35:48;5.47;;;2.60;;
33188;SDS011;52601;53.070;10.600;2023-06-10T01:38:37;4.80;;;3.15;;
33188;SDS011;52601;53.070;10.600;2023-06-10T01:41:25;5.55;;;2.78;;
33188;SDS011;52601;53.070;10.600;2023-06-10T01:44:12;5.88;;;2.65;;
33188;SDS011;52601;53.070;10.600;2023-06-10T01:46:57;6.55;;;2.95;;
33188;SDS011;52601;53.070;10.600;2023-06-10T01:49:43;7.37;;;2.33;;
33188;SDS011;52601;53.070;10.600;2023-06-10T01:52:28;9.93;;;3.03;;
33188;SDS011;52601;53.070;10.600;2023-06-10T01:55:14;9.00;;;2.85;;
33188;SDS011;52601;53.070;10.600;2023-06-10T01:58:00;9.00;;;2.80;;
33188;SDS011;52601;53.070;10.600;2023-06-10T02:00:45;6.22;;;2.60;;
33188;SDS011;52601;53.070;10.600;2023-06-10T02:03:31;8.77;;;2.53;;
33188;SDS011;52601;53.070;10.600;2023-06-10T02:06:16;7.47;;;2.83;;
33188;SDS011;52601;53.070;10.600;2023-06-10T02:09:02;8.80;;;3.37;;
33188;SDS011;52601;53.070;10.600;2023-06-10T02:11:47;5.68;;;2.75;;
33188;SDS011;52601;53.070;10.600;2023-06-10T02:14:33;4.53;;;2.60;;
33188;SDS011;52601;53.070;10.600;2023-06-10T02:17:19;7.55;;;2.90;;
33188;SDS011;52601;53.070;10.600;2023-06-10T02:20:05;7.60;;;2.73;;
33188;SDS011;52601;53.070;10.600;2023-06-10T02:22:52;7.88;;;3.65;;
33188;SDS011;52601;53.070;10.600;2023-06-10T02:25:38;6.25;;;2.78;;
33188;SDS011;52601;53.070;10.600;2023-06-10T02:28:23;6.97;;;2.55;;
33188;SDS011;52601;53.070;10.600;2023-06-10T02:31:10;5.03;;;3.13;;
33188;SDS011;52601;53.070;10.600;2023-06-10T02:33:55;11.53;;;3.00;;
33188;SDS011;52601;53.070;10.600;2023-06-10T02:36:41;4.67;;;2.77;;
33188;SDS011;52601;53.070;10.600;2023-06-10T02:39:27;3.20;;;2.47;;
33188;SDS011;52601;53.070;10.600;2023-06-10T02:42:13;8.23;;;2.80;;
33188;SDS011;52601;53.070;10.600;2023-06-10T02:44:58;7.23;;;2.53;;
33188;SDS011;52601;53.070;10.600;2023-06-10T02:47:44;6.38;;;3.47;;
33188;SDS011;52601;53.070;10.600;2023-06-10T02:50:30;3.88;;;1.85;;
33188;SDS011;52601;53.070;10.600;2023-06-10T02:53:16;4.35;;;2.58;;
33188;SDS011;52601;53.070;10.600;2023-06-10T02:56:02;5.75;;;2.78;;
33188;SDS011;52601;53.070;10.600;2023-06-10T02:58:47;7.20;;;2.67;;
33188;SDS011;52601;53.070;10.600;2023-06-10T03:01:33;4.57;;;2.78;;
33188;SDS011;52601;53.070;10.600;2023-06-10T03:04:22;5.47;;;2.72;;
33188;SDS011;52601;53.070;10.600;2023-06-10T03:07:09;5.35;;;2.22;;
33188;SDS011;52601;53.070;10.600;2023-06-10T03:09:56;3.40;;;2.33;;
33188;SDS011;52601;53.070;10.600;2023-06-10T03:12:41;7.60;;;2.85;;
33188;SDS011;52601;53.070;10.600;2023-06-10T03:15:26;5.85;;;2.53;;
33188;SDS011;52601;53.070;10.600;2023-06-10T03:18:14;3.00;;;2.58;;
33188;SDS011;52601;53.070;10.600;2023-06-10T03:21:00;4.60;;;2.27;;
33188;SDS011;52601;53.070;10.600;2023-06-10T03:23:45;6.70;;;2.60;;
33188;SDS011;52601;53.070;10.600;2023-06-10T03:26:31;5.25;;;2.45;;
33188;SDS011;52601;53.070;10.600;2023-06-10T03:29:17;4.55;;;2.85;;
33188;SDS011;52601;53.070;10.600;2023-06-10T03:32:02;9.52;;;2.50;;
33188;SDS011;52601;53.070;10.600;2023-06-10T03:34:48;4.43;;;2.38;;
33188;SDS011;52601;53.070;10.600;2023-06-10T03:37:34;6.35;;;2.38;;
33188;SDS011;52601;53.070;10.600;2023-06-10T03:40:19;4.05;;;2.08;;
33188;SDS011;52601;53.070;10.600;2023-06-10T03:43:05;5.90;;;2.00;;
33188;SDS011;52601;53.070;10.600;2023-06-10T03:45:51;12.75;;;2.55;;
33188;SDS011;52601;53.070;10.600;2023-06-10T03:48:37;12.52;;;2.60;;
33188;SDS011;52601;53.070;10.600;2023-06-10T03:51:24;6.88;;;2.17;;
33188;SDS011;52601;53.070;10.600;2023-06-10T03:54:09;5.63;;;2.53;;
33188;SDS011;52601;53.070;10.600;2023-06-10T03:56:55;8.63;;;3.05;;
33188;SDS011;52601;53.070;10.600;2023-06-10T03:59:41;8.18;;;2.33;;
33188;SDS011;52601;53.070;10.600;2023-06-10T04:02:26;14.85;;;2.83;;
33188;SDS011;52601;53.070;10.600;2023-06-10T04:05:12;9.03;;;1.70;;
33188;SDS011;52601;53.070;10.600;2023-06-10T04:10:44;5.57;;;1.65;;
33188;SDS011;52601;53.070;10.600;2023-06-10T04:13:30;5.13;;;2.37;;
33188;SDS011;52601;53.070;10.600;2023-06-10T04:16:16;6.80;;;2.23;;
33188;SDS011;52601;53.070;10.600;2023-06-10T04:19:01;6.88;;;2.47;;
33188;SDS011;52601;53.070;10.600;2023-06-10T04:21:47;11.53;;;2.63;;
33188;SDS011;52601;53.070;10.600;2023-06-10T04:24:32;7.80;;;2.50;;
33188;SDS011;52601;53.070;10.600;2023-06-10T04:27:18;4.82;;;2.10;;
33188;SDS011;52601;53.070;10.600;2023-06-10T04:30:04;6.83;;;2.57;;
33188;SDS011;52601;53.070;10.600;2023-06-10T04:35:35;6.63;;;2.25;;
33188;SDS011;52601;53.070;10.600;2023-06-10T04:38:21;5.75;;;1.88;;
33188;SDS011;52601;53.070;10.600;2023-06-10T04:41:06;5.30;;;2.33;;
33188;SDS011;52601;53.070;10.600;2023-06-10T04:43:52;9.30;;;2.33;;
33188;SDS011;52601;53.070;10.600;2023-06-10T04:46:38;6.72;;;2.33;;
33188;SDS011;52601;53.070;10.600;2023-06-10T04:49:24;7.35;;;2.35;;
33188;SDS011;52601;53.070;10.600;2023-06-10T04:52:09;6.70;;;2.63;;
33188;SDS011;52601;53.070;10.600;2023-06-10T04:54:56;5.57;;;2.30;;
33188;SDS011;52601;53.070;10.600;2023-06-10T04:57:43;5.15;;;1.90;;
33188;SDS011;52601;53.070;10.600;2023-06-10T05:00:28;16.53;;;3.10;;
33188;SDS011;52601;53.070;10.600;2023-06-10T05:03:14;48.13;;;5.30;;
33188;SDS011;52601;53.070;10.600;2023-06-10T05:06:00;8.07;;;2.55;;
33188;SDS011;52601;53.070;10.600;2023-06-10T05:08:46;9.05;;;2.47;;
33188;SDS011;52601;53.070;10.600;2023-06-10T05:11:31;7.30;;;2.30;;
33188;SDS011;52601;53.070;10.600;2023-06-10T05:14:17;8.93;;;2.40;;
33188;SDS011;52601;53.070;10.600;2023-06-10T05:17:04;3.17;;;1.90;;
33188;SDS011;52601;53.070;10.600;2023-06-10T05:19:51;3.50;;;1.80;;
33188;SDS011;52601;53.070;10.600;2023-06-10T05:22:36;4.28;;;1.88;;
33188;SDS011;52601;53.070;10.600;2023-06-10T05:25:22;5.80;;;2.03;;
33188;SDS011;52601;53.070;10.600;2023-06-10T05:28:08;4.57;;;1.67;;
33188;SDS011;52601;53.070;10.600;2023-06-10T05:31:00;4.88;;;1.83;;
33188;SDS011;52601;53.070;10.600;2023-06-10T05:33:45;5.13;;;1.77;;
33188;SDS011;52601;53.070;10.600;2023-06-10T05:36:31;5.30;;;2.00;;
33188;SDS011;52601;53.070;10.600;2023-06-10T05:39:17;4.90;;;1.70;;
33188;SDS011;52601;53.070;10.600;2023-06-10T05:42:04;5.63;;;1.87;;
33188;SDS011;52601;53.070;10.600;2023-06-10T05:44:51;4.22;;;1.80;;
33188;SDS011;52601;53.070;10.600;2023-06-10T05:47:37;4.45;;;1.90;;
33188;SDS011;52601;53.070;10.600;2023-06-10T05:50:23;8.43;;;1.60;;
33188;SDS011;52601;53.070;10.600;2023-06-10T05:53:09;5.50;;;1.77;;
33188;SDS011;52601;53.070;10.600;2023-06-10T05:56:00;5.70;;;2.10;;
33188;SDS011;52601;53.070;10.600;2023-06-10T05:58:45;52.23;;;6.33;;
33188;SDS011;52601;53.070;10.600;2023-06-10T06:01:31;7.10;;;1.45;;
33188;SDS011;52601;53.070;10.600;2023-06-10T06:04:17;5.72;;;1.83;;
33188;SDS011;52601;53.070;10.600;2023-06-10T06:07:03;5.22;;;1.70;;
33188;SDS011;52601;53.070;10.600;2023-06-10T06:09:49;7.22;;;1.88;;
33188;SDS011;52601;53.070;10.600;2023-06-10T06:12:35;8.25;;;1.45;;
33188;SDS011;52601;53.070;10.600;2023-06-10T06:15:20;7.50;;;2.53;;
33188;SDS011;52601;53.070;10.600;2023-06-10T06:18:05;6.95;;;1.50;;
33188;SDS011;52601;53.070;10.600;2023-06-10T06:20:51;3.60;;;1.33;;
33188;SDS011;52601;53.070;10.600;2023-06-10T06:23:36;11.57;;;2.33;;
33188;SDS011;52601;53.070;10.600;2023-06-10T06:26:22;6.07;;;1.70;;
33188;SDS011;52601;53.070;10.600;2023-06-10T06:29:07;12.25;;;2.25;;
33188;SDS011;52601;53.070;10.600;2023-06-10T06:31:53;6.75;;;1.98;;
33188;SDS011;52601;53.070;10.600;2023-06-10T06:34:39;4.68;;;1.63;;
33188;SDS011;52601;53.070;10.600;2023-06-10T06:37:24;3.67;;;1.58;;
33188;SDS011;52601;53.070;10.600;2023-06-10T06:40:11;3.28;;;1.55;;
33188;SDS011;52601;53.070;10.600;2023-06-10T06:45:42;10.60;;;2.10;;
33188;SDS011;52601;53.070;10.600;2023-06-10T06:48:27;5.15;;;1.90;;
33188;SDS011;52601;53.070;10.600;2023-06-10T06:51:13;5.40;;;1.80;;
33188;SDS011;52601;53.070;10.600;2023-06-10T06:53:58;7.07;;;2.10;;
33188;SDS011;52601;53.070;10.600;2023-06-10T06:56:44;5.28;;;1.63;;
33188;SDS011;52601;53.070;10.600;2023-06-10T06:59:30;4.43;;;1.75;;
33188;SDS011;52601;53.070;10.600;2023-06-10T07:02:15;11.15;;;2.25;;
33188;SDS011;52601;53.070;10.600;2023-06-10T07:05:01;3.80;;;1.35;;
33188;SDS011;52601;53.070;10.600;2023-06-10T07:07:47;4.40;;;1.77;;
33188;SDS011;52601;53.070;10.600;2023-06-10T07:10:32;2.72;;;1.40;;
33188;SDS011;52601;53.070;10.600;2023-06-10T07:13:18;7.03;;;2.28;;
33188;SDS011;52601;53.070;10.600;2023-06-10T07:16:04;2.83;;;1.45;;
33188;SDS011;52601;53.070;10.600;2023-06-10T07:18:49;5.18;;;2.00;;
33188;SDS011;52601;53.070;10.600;2023-06-10T07:21:35;4.93;;;2.05;;
33188;SDS011;52601;53.070;10.600;2023-06-10T07:24:21;3.17;;;1.83;;
33188;SDS011;52601;53.070;10.600;2023-06-10T07:27:07;4.80;;;2.10;;
33188;SDS011;52601;53.070;10.600;2023-06-10T07:29:52;4.03;;;1.45;;
33188;SDS011;52601;53.070;10.600;2023-06-10T07:32:38;4.35;;;1.75;;
33188;SDS011;52601;53.070;10.600;2023-06-10T07:35:23;8.88;;;2.58;;
33188;SDS011;52601;53.070;10.600;2023-06-10T07:38:09;4.05;;;1.77;;
33188;SDS011;52601;53.070;10.600;2023-06-10T07:40:54;4.20;;;1.65;;
33188;SDS011;52601;53.070;10.600;2023-06-10T07:43:39;4.22;;;2.00;;
33188;SDS011;52601;53.070;10.600;2023-06-10T07:46:25;7.30;;;1.83;;
33188;SDS011;52601;53.070;10.600;2023-06-10T07:49:12;5.72;;;1.75;;
33188;SDS011;52601;53.070;10.600;2023-06-10T07:54:42;2.63;;;1.70;;
33188;SDS011;52601;53.070;10.600;2023-06-10T08:00:14;3.70;;;1.90;;
33188;SDS011;52601;53.070;10.600;2023-06-10T08:03:00;4.03;;;2.03;;
33188;SDS011;52601;53.070;10.600;2023-06-10T08:05:45;3.22;;;1.65;;
33188;SDS011;52601;53.070;10.600;2023-06-10T08:08:31;5.80;;;1.95;;
33188;SDS011;52601;53.070;10.600;2023-06-10T08:11:16;3.00;;;1.75;;
33188;SDS011;52601;53.070;10.600;2023-06-10T08:14:02;3.28;;;1.50;;
33188;SDS011;52601;53.070;10.600;2023-06-10T08:16:48;6.60;;;2.50;;
33188;SDS011;52601;53.070;10.600;2023-06-10T08:22:19;14.20;;;2.40;;
33188;SDS011;52601;53.070;10.600;2023-06-10T08:27:50;8.13;;;2.30;;
33188;SDS011;52601;53.070;10.600;2023-06-10T08:30:37;8.05;;;2.35;;
33188;SDS011;52601;53.070;10.600;2023-06-10T08:36:08;6.53;;;1.73;;
33188;SDS011;52601;53.070;10.600;2023-06-10T08:38:53;8.68;;;2.10;;
33188;SDS011;52601;53.070;10.600;2023-06-10T08:41:40;8.43;;;2.33;;
33188;SDS011;52601;53.070;10.600;2023-06-10T08:44:29;8.23;;;2.00;;
33188;SDS011;52601;53.070;10.600;2023-06-10T08:47:16;4.88;;;2.20;;
33188;SDS011;52601;53.070;10.600;2023-06-10T08:50:02;4.95;;;2.13;;
33188;SDS011;52601;53.070;10.600;2023-06-10T08:52:50;4.43;;;1.85;;
33188;SDS011;52601;53.070;10.600;2023-06-10T08:55:38;4.35;;;2.42;;
33188;SDS011;52601;53.070;10.600;2023-06-10T08:58:27;5.70;;;2.25;;
33188;SDS011;52601;53.070;10.600;2023-06-10T09:01:13;6.25;;;2.40;;
33188;SDS011;52601;53.070;10.600;2023-06-10T09:04:02;5.63;;;2.60;;
33188;SDS011;52601;53.070;10.600;2023-06-10T09:06:48;4.10;;;1.77;;
33188;SDS011;52601;53.070;10.600;2023-06-10T09:09:34;5.65;;;2.28;;
33188;SDS011;52601;53.070;10.600;2023-06-10T09:12:21;6.65;;;2.40;;
33188;SDS011;52601;53.070;10.600;2023-06-10T09:15:07;5.40;;;2.45;;
33188;SDS011;52601;53.070;10.600;2023-06-10T09:17:53;4.80;;;2.15;;
33188;SDS011;52601;53.070;10.600;2023-06-10T09:20:39;6.68;;;2.75;;
33188;SDS011;52601;53.070;10.600;2023-06-10T09:23:27;5.65;;;2.03;;
33188;SDS011;52601;53.070;10.600;2023-06-10T09:29:02;9.82;;;2.70;;
33188;SDS011;52601;53.070;10.600;2023-06-10T09:31:49;3.53;;;1.95;;
33188;SDS011;52601;53.070;10.600;2023-06-10T09:34:34;7.82;;;2.22;;
33188;SDS011;52601;53.070;10.600;2023-06-10T09:37:21;4.85;;;2.13;;
33188;SDS011;52601;53.070;10.600;2023-06-10T09:40:11;6.68;;;2.95;;
33188;SDS011;52601;53.070;10.600;2023-06-10T09:49:32;8.25;;;2.55;;
33188;SDS011;52601;53.070;10.600;2023-06-10T09:56:05;5.20;;;2.20;;
33188;SDS011;52601;53.070;10.600;2023-06-10T09:58:55;4.28;;;2.25;;
33188;SDS011;52601;53.070;10.600;2023-06-10T10:01:40;4.97;;;2.50;;
33188;SDS011;52601;53.070;10.600;2023-06-10T10:09:57;20.58;;;3.60;;
33188;SDS011;52601;53.070;10.600;2023-06-10T10:12:43;5.07;;;2.60;;
33188;SDS011;52601;53.070;10.600;2023-06-10T10:15:31;7.32;;;2.83;;
33188;SDS011;52601;53.070;10.600;2023-06-10T10:18:19;10.68;;;2.92;;
33188;SDS011;52601;53.070;10.600;2023-06-10T10:21:11;8.07;;;2.90;;
33188;SDS011;52601;53.070;10.600;2023-06-10T10:24:07;4.10;;;2.67;;
33188;SDS011;52601;53.070;10.600;2023-06-10T10:27:20;4.53;;;2.78;;
33188;SDS011;52601;53.070;10.600;2023-06-10T10:55:35;4.57;;;2.50;;
33188;SDS011;52601;53.070;10.600;2023-06-10T10:58:24;4.22;;;2.45;;
33188;SDS011;52601;53.070;10.600;2023-06-10T11:01:11;9.10;;;2.90;;
33188;SDS011;52601;53.070;10.600;2023-06-10T11:03:57;6.13;;;2.90;;
33188;SDS011;52601;53.070;10.600;2023-06-10T11:06:51;5.50;;;3.10;;
33188;SDS011;52601;53.070;10.600;2023-06-10T11:09:38;5.40;;;3.08;;
33188;SDS011;52601;53.070;10.600;2023-06-10T11:15:42;6.93;;;3.13;;
33188;SDS011;52601;53.070;10.600;2023-06-10T11:18:29;6.70;;;2.85;;
33188;SDS011;52601;53.070;10.600;2023-06-10T11:21:16;5.43;;;2.83;;
33188;SDS011;52601;53.070;10.600;2023-06-10T11:24:11;6.70;;;2.90;;
33188;SDS011;52601;53.070;10.600;2023-06-10T11:32:51;6.25;;;3.20;;
33188;SDS011;52601;53.070;10.600;2023-06-10T11:35:38;5.70;;;3.08;;
33188;SDS011;52601;53.070;10.600;2023-06-10T11:38:24;3.97;;;2.63;;
33188;SDS011;52601;53.070;10.600;2023-06-10T11:41:11;7.05;;;3.40;;
33188;SDS011;52601;53.070;10.600;2023-06-10T11:43:57;6.28;;;2.92;;
33188;SDS011;52601;53.070;10.600;2023-06-10T11:46:49;4.43;;;3.10;;
33188;SDS011;52601;53.070;10.600;2023-06-10T11:52:27;4.63;;;3.15;;
33188;SDS011;52601;53.070;10.600;2023-06-10T11:55:18;5.32;;;3.42;;
33188;SDS011;52601;53.070;10.600;2023-06-10T11:58:04;3.25;;;2.35;;
33188;SDS011;52601;53.070;10.600;2023-06-10T12:00:50;8.75;;;3.00;;
33188;SDS011;52601;53.070;10.600;2023-06-10T12:03:39;3.55;;;2.65;;
33188;SDS011;52601;53.070;10.600;2023-06-10T12:06:25;4.60;;;2.80;;
33188;SDS011;52601;53.070;10.600;2023-06-10T12:09:18;5.85;;;2.92;;
33188;SDS011;52601;53.070;10.600;2023-06-10T12:12:12;5.45;;;2.45;;
33188;SDS011;52601;53.070;10.600;2023-06-10T12:14:57;7.38;;;2.95;;
33188;SDS011;52601;53.070;10.600;2023-06-10T12:17:44;4.55;;;2.72;;
33188;SDS011;52601;53.070;10.600;2023-06-10T12:20:32;3.97;;;2.70;;
33188;SDS011;52601;53.070;10.600;2023-06-10T12:23:19;4.57;;;2.80;;
33188;SDS011;52601;53.070;10.600;2023-06-10T12:26:05;4.50;;;2.88;;
33188;SDS011;52601;53.070;10.600;2023-06-10T12:28:50;3.67;;;2.42;;
33188;SDS011;52601;53.070;10.600;2023-06-10T12:31:51;4.72;;;2.92;;
33188;SDS011;52601;53.070;10.600;2023-06-10T12:34:38;3.22;;;2.25;;
33188;SDS011;52601;53.070;10.600;2023-06-10T12:37:24;6.30;;;2.85;;
33188;SDS011;52601;53.070;10.600;2023-06-10T12:40:10;7.20;;;3.17;;
33188;SDS011;52601;53.070;10.600;2023-06-10T12:42:56;4.13;;;2.83;;
33188;SDS011;52601;53.070;10.600;2023-06-10T12:45:42;3.70;;;2.35;;
33188;SDS011;52601;53.070;10.600;2023-06-10T12:48:29;2.80;;;2.50;;
33188;SDS011;52601;53.070;10.600;2023-06-10T12:51:15;8.18;;;2.80;;
33188;SDS011;52601;53.070;10.600;2023-06-10T12:54:01;4.82;;;2.33;;
33188;SDS011;52601;53.070;10.600;2023-06-10T12:56:47;6.95;;;2.58;;
33188;SDS011;52601;53.070;10.600;2023-06-10T12:59:33;23.33;;;4.05;;
33188;SDS011;52601;53.070;10.600;2023-06-10T13:02:19;4.85;;;2.90;;
33188;SDS011;52601;53.070;10.600;2023-06-10T13:05:05;3.22;;;2.38;;
33188;SDS011;52601;53.070;10.600;2023-06-10T13:07:52;4.47;;;2.50;;
33188;SDS011;52601;53.070;10.600;2023-06-10T13:10:38;3.67;;;2.70;;
33188;SDS011;52601;53.070;10.600;2023-06-10T13:13:24;3.95;;;2.22;;
33188;SDS011;52601;53.070;10.600;2023-06-10T13:16:10;6.53;;;3.40;;
33188;SDS011;52601;53.070;10.600;2023-06-10T13:18:56;4.22;;;2.10;;
33188;SDS011;52601;53.070;10.600;2023-06-10T13:21:42;5.78;;;2.50;;
33188;SDS011;52601;53.070;10.600;2023-06-10T13:24:28;6.10;;;3.05;;
33188;SDS011;52601;53.070;10.600;2023-06-10T13:27:13;5.15;;;3.20;;
33188;SDS011;52601;53.070;10.600;2023-06-10T13:30:01;5.05;;;2.70;;
33188;SDS011;52601;53.070;10.600;2023-06-10T13:32:46;3.92;;;2.45;;
33188;SDS011;52601;53.070;10.600;2023-06-10T13:35:32;3.45;;;2.40;;
33188;SDS011;52601;53.070;10.600;2023-06-10T13:38:18;5.90;;;3.05;;
33188;SDS011;52601;53.070;10.600;2023-06-10T13:41:04;2.65;;;2.35;;
33188;SDS011;52601;53.070;10.600;2023-06-10T13:43:49;11.68;;;3.13;;
33188;SDS011;52601;53.070;10.600;2023-06-10T13:46:35;3.78;;;2.63;;
33188;SDS011;52601;53.070;10.600;2023-06-10T13:49:20;4.85;;;3.20;;
33188;SDS011;52601;53.070;10.600;2023-06-10T13:52:07;3.05;;;2.40;;
33188;SDS011;52601;53.070;10.600;2023-06-10T13:54:52;7.00;;;2.90;;
33188;SDS011;52601;53.070;10.600;2023-06-10T13:57:38;4.15;;;2.90;;
33188;SDS011;52601;53.070;10.600;2023-06-10T14:00:24;4.32;;;2.60;;
33188;SDS011;52601;53.070;10.600;2023-06-10T14:03:10;3.55;;;2.55;;
33188;SDS011;52601;53.070;10.600;2023-06-10T14:05:55;4.78;;;2.90;;
33188;SDS011;52601;53.070;10.600;2023-06-10T14:08:41;4.75;;;2.70;;
33188;SDS011;52601;53.070;10.600;2023-06-10T14:11:27;5.95;;;2.70;;
33188;SDS011;52601;53.070;10.600;2023-06-10T14:14:12;3.70;;;2.70;;
33188;SDS011;52601;53.070;10.600;2023-06-10T14:16:59;8.00;;;3.10;;
33188;SDS011;52601;53.070;10.600;2023-06-10T14:19:45;3.25;;;2.70;;
33188;SDS011;52601;53.070;10.600;2023-06-10T14:22:30;4.47;;;2.33;;
33188;SDS011;52601;53.070;10.600;2023-06-10T14:25:16;4.00;;;2.30;;
33188;SDS011;52601;53.070;10.600;2023-06-10T14:28:02;4.15;;;2.67;;
33188;SDS011;52601;53.070;10.600;2023-06-10T14:30:48;9.70;;;2.95;;
33188;SDS011;52601;53.070;10.600;2023-06-10T14:33:33;4.68;;;3.20;;
33188;SDS011;52601;53.070;10.600;2023-06-10T14:36:19;5.72;;;2.97;;
33188;SDS011;52601;53.070;10.600;2023-06-10T14:39:04;6.63;;;2.65;;
33188;SDS011;52601;53.070;10.600;2023-06-10T14:41:50;5.95;;;2.88;;
33188;SDS011;52601;53.070;10.600;2023-06-10T14:44:38;4.05;;;3.05;;
33188;SDS011;52601;53.070;10.600;2023-06-10T14:47:23;3.08;;;2.58;;
33188;SDS011;52601;53.070;10.600;2023-06-10T14:50:09;4.47;;;2.75;;
33188;SDS011;52601;53.070;10.600;2023-06-10T14:52:54;3.38;;;2.70;;
33188;SDS011;52601;53.070;10.600;2023-06-10T14:55:40;3.88;;;2.50;;
33188;SDS011;52601;53.070;10.600;2023-06-10T15:01:11;7.53;;;2.95;;
33188;SDS011;52601;53.070;10.600;2023-06-10T15:03:57;6.90;;;2.95;;
33188;SDS011;52601;53.070;10.600;2023-06-10T15:09:28;5.50;;;2.80;;
33188;SDS011;52601;53.070;10.600;2023-06-10T15:14:59;7.30;;;2.90;;
33188;SDS011;52601;53.070;10.600;2023-06-10T15:17:44;3.83;;;2.88;;
33188;SDS011;52601;53.070;10.600;2023-06-10T15:20:30;3.65;;;2.90;;
33188;SDS011;52601;53.070;10.600;2023-06-10T15:23:16;4.05;;;2.95;;
33188;SDS011;52601;53.070;10.600;2023-06-10T15:26:02;12.27;;;3.45;;
33188;SDS011;52601;53.070;10.600;2023-06-10T15:28:47;5.13;;;2.75;;
33188;SDS011;52601;53.070;10.600;2023-06-10T15:31:33;7.25;;;3.20;;
33188;SDS011;52601;53.070;10.600;2023-06-10T15:34:18;4.03;;;2.47;;
33188;SDS011;52601;53.070;10.600;2023-06-10T15:37:04;4.07;;;2.67;;
33188;SDS011;52601;53.070;10.600;2023-06-10T15:39:49;6.07;;;2.78;;
33188;SDS011;52601;53.070;10.600;2023-06-10T15:42:35;12.35;;;3.67;;
33188;SDS011;52601;53.070;10.600;2023-06-10T15:45:21;5.45;;;2.65;;
33188;SDS011;52601;53.070;10.600;2023-06-10T15:48:07;3.65;;;2.63;;
33188;SDS011;52601;53.070;10.600;2023-06-10T15:50:52;3.92;;;2.63;;
33188;SDS011;52601;53.070;10.600;2023-06-10T15:53:38;4.32;;;2.80;;
33188;SDS011;52601;53.070;10.600;2023-06-10T15:56:23;4.00;;;2.60;;
33188;SDS011;52601;53.070;10.600;2023-06-10T15:59:10;3.58;;;3.05;;
33188;SDS011;52601;53.070;10.600;2023-06-10T16:01:57;3.08;;;2.42;;
33188;SDS011;52601;53.070;10.600;2023-06-10T16:04:42;8.93;;;2.67;;
33188;SDS011;52601;53.070;10.600;2023-06-10T16:07:28;6.38;;;2.63;;
33188;SDS011;52601;53.070;10.600;2023-06-10T16:10:14;5.05;;;2.85;;
33188;SDS011;52601;53.070;10.600;2023-06-10T16:12:59;3.40;;;2.60;;
33188;SDS011;52601;53.070;10.600;2023-06-10T16:15:45;4.07;;;2.80;;
33188;SDS011;52601;53.070;10.600;2023-06-10T16:18:30;10.13;;;3.40;;
33188;SDS011;52601;53.070;10.600;2023-06-10T16:24:02;9.25;;;3.17;;
33188;SDS011;52601;53.070;10.600;2023-06-10T16:29:33;6.32;;;2.90;;
33188;SDS011;52601;53.070;10.600;2023-06-10T16:32:19;7.47;;;2.60;;
33188;SDS011;52601;53.070;10.600;2023-06-10T16:35:04;15.23;;;4.38;;
33188;SDS011;52601;53.070;10.600;2023-06-10T16:37:50;7.72;;;3.55;;
33188;SDS011;52601;53.070;10.600;2023-06-10T16:43:21;8.25;;;3.53;;
33188;SDS011;52601;53.070;10.600;2023-06-10T16:46:08;45.80;;;6.97;;
33188;SDS011;52601;53.070;10.600;2023-06-10T16:48:53;22.55;;;4.03;;
33188;SDS011;52601;53.070;10.600;2023-06-10T16:51:39;8.40;;;2.90;;
33188;SDS011;52601;53.070;10.600;2023-06-10T16:54:24;6.33;;;2.87;;
33188;SDS011;52601;53.070;10.600;2023-06-10T16:57:10;3.97;;;2.78;;
33188;SDS011;52601;53.070;10.600;2023-06-10T16:59:55;6.47;;;3.15;;
33188;SDS011;52601;53.070;10.600;2023-06-10T17:02:40;6.07;;;3.27;;
33188;SDS011;52601;53.070;10.600;2023-06-10T17:05:26;36.95;;;5.57;;
33188;SDS011;52601;53.070;10.600;2023-06-10T17:08:12;7.47;;;3.40;;
33188;SDS011;52601;53.070;10.600;2023-06-10T17:10:57;13.82;;;3.65;;
33188;SDS011;52601;53.070;10.600;2023-06-10T17:13:43;12.65;;;3.35;;
33188;SDS011;52601;53.070;10.600;2023-06-10T17:16:29;15.13;;;3.45;;
33188;SDS011;52601;53.070;10.600;2023-06-10T17:22:01;9.32;;;2.72;;
33188;SDS011;52601;53.070;10.600;2023-06-10T17:24:47;3.30;;;2.70;;
33188;SDS011;52601;53.070;10.600;2023-06-10T17:27:32;7.10;;;3.00;;
33188;SDS011;52601;53.070;10.600;2023-06-10T17:30:18;3.58;;;2.75;;
33188;SDS011;52601;53.070;10.600;2023-06-10T17:33:03;4.18;;;2.70;;
33188;SDS011;52601;53.070;10.600;2023-06-10T17:35:49;25.27;;;6.63;;
33188;SDS011;52601;53.070;10.600;2023-06-10T17:41:20;19.35;;;6.13;;
33188;SDS011;52601;53.070;10.600;2023-06-10T17:44:06;76.97;;;10.93;;
33188;SDS011;52601;53.070;10.600;2023-06-10T17:46:52;11.18;;;5.80;;
33188;SDS011;52601;53.070;10.600;2023-06-10T17:49:38;112.53;;;13.95;;
33188;SDS011;52601;53.070;10.600;2023-06-10T17:52:24;339.42;;;46.45;;
33188;SDS011;52601;53.070;10.600;2023-06-10T17:55:09;1061.45;;;145.75;;
33188;SDS011;52601;53.070;10.600;2023-06-10T17:57:55;312.45;;;49.65;;
33188;SDS011;52601;53.070;10.600;2023-06-10T18:00:41;725.40;;;105.05;;
33188;SDS011;52601;53.070;10.600;2023-06-10T18:03:26;433.40;;;64.75;;
33188;SDS011;52601;53.070;10.600;2023-06-10T18:06:14;1010.22;;;156.48;;